sensor_id;sensor_type;location;lat;lon;timestamp;temperature;humidity
37460;DHT22;23318;50.966;5.284;2022-10-17T00:01:42;15.00;99.90
37460;DHT22;23318;50.966;5.284;2022-10-17T00:04:08;14.90;99.90
37460;DHT22;23318;50.966;5.284;2022-10-17T00:06:33;14.90;99.90
37460;DHT22;23318;50.966;5.284;2022-10-17T00:08:59;14.90;99.90
37460;DHT22;23318;50.966;5.284;2022-10-17T00:11:25;14.80;99.90
37460;DHT22;23318;50.966;5.284;2022-10-17T00:13:53;14.90;99.90
37460;DHT22;23318;50.966;5.284;2022-10-17T00:16:27;14.80;99.90
37460;DHT22;23318;50.966;5.284;2022-10-17T00:18:54;14.90;99.90
37460;DHT22;23318;50.966;5.284;2022-10-17T00:21:20;14.90;99.90
37460;DHT22;23318;50.966;5.284;2022-10-17T00:23:46;15.00;99.90
37460;DHT22;23318;50.966;5.284;2022-10-17T00:26:12;14.90;99.90
37460;DHT22;23318;50.966;5.284;2022-10-17T00:28:38;15.00;99.90
37460;DHT22;23318;50.966;5.284;2022-10-17T00:31:05;14.90;99.90
37460;DHT22;23318;50.966;5.284;2022-10-17T00:33:31;15.00;99.90
37460;DHT22;23318;50.966;5.284;2022-10-17T00:36:08;15.00;99.90
37460;DHT22;23318;50.966;5.284;2022-10-17T00:38:35;15.00;99.90
37460;DHT22;23318;50.966;5.284;2022-10-17T00:41:02;15.00;99.90
37460;DHT22;23318;50.966;5.284;2022-10-17T00:43:28;15.00;99.90
37460;DHT22;23318;50.966;5.284;2022-10-17T00:45:54;15.10;99.90
37460;DHT22;23318;50.966;5.284;2022-10-17T00:48:21;15.00;99.90
37460;DHT22;23318;50.966;5.284;2022-10-17T00:50:49;15.00;99.90
37460;DHT22;23318;50.966;5.284;2022-10-17T00:53:16;15.00;99.90
37460;DHT22;23318;50.966;5.284;2022-10-17T00:55:50;15.10;99.90
37460;DHT22;23318;50.966;5.284;2022-10-17T00:58:18;15.20;99.90
37460;DHT22;23318;50.966;5.284;2022-10-17T01:00:45;15.20;99.90
37460;DHT22;23318;50.966;5.284;2022-10-17T01:03:11;15.20;99.90
37460;DHT22;23318;50.966;5.284;2022-10-17T01:05:38;15.30;99.90
37460;DHT22;23318;50.966;5.284;2022-10-17T01:08:04;15.30;99.90
37460;DHT22;23318;50.966;5.284;2022-10-17T01:13:33;15.50;99.90
37460;DHT22;23318;50.966;5.284;2022-10-17T01:16:12;15.30;99.90
37460;DHT22;23318;50.966;5.284;2022-10-17T01:19:11;15.30;99.90
37460;DHT22;23318;50.966;5.284;2022-10-17T01:22:25;15.30;99.90
37460;DHT22;23318;50.966;5.284;2022-10-17T01:27:51;15.10;99.90
37460;DHT22;23318;50.966;5.284;2022-10-17T01:33:29;15.10;99.90
37460;DHT22;23318;50.966;5.284;2022-10-17T01:38:45;14.80;99.90
37460;DHT22;23318;50.966;5.284;2022-10-17T01:41:34;15.00;99.90
37460;DHT22;23318;50.966;5.284;2022-10-17T01:44:07;15.10;99.90
37460;DHT22;23318;50.966;5.284;2022-10-17T01:46:38;15.10;99.90
37460;DHT22;23318;50.966;5.284;2022-10-17T01:49:07;15.10;99.90
37460;DHT22;23318;50.966;5.284;2022-10-17T01:51:46;15.10;99.90
37460;DHT22;23318;50.966;5.284;2022-10-17T01:56:43;15.20;99.90
37460;DHT22;23318;50.966;5.284;2022-10-17T01:59:18;15.30;99.90
37460;DHT22;23318;50.966;5.284;2022-10-17T02:01:47;15.30;99.90
37460;DHT22;23318;50.966;5.284;2022-10-17T02:04:13;15.40;99.90
37460;DHT22;23318;50.966;5.284;2022-10-17T02:06:40;15.40;99.90
37460;DHT22;23318;50.966;5.284;2022-10-17T02:09:26;15.50;99.90
37460;DHT22;23318;50.966;5.284;2022-10-17T02:12:09;15.50;99.90
37460;DHT22;23318;50.966;5.284;2022-10-17T02:25:55;15.60;99.90
37460;DHT22;23318;50.966;5.284;2022-10-17T02:31:21;15.50;99.90
37460;DHT22;23318;50.966;5.284;2022-10-17T02:33:55;15.50;99.90
37460;DHT22;23318;50.966;5.284;2022-10-17T02:36:28;15.60;99.90
37460;DHT22;23318;50.966;5.284;2022-10-17T02:38:55;15.60;99.90
37460;DHT22;23318;50.966;5.284;2022-10-17T02:41:22;15.70;99.90
37460;DHT22;23318;50.966;5.284;2022-10-17T02:43:49;15.90;99.90
37460;DHT22;23318;50.966;5.284;2022-10-17T02:46:18;15.70;99.90
37460;DHT22;23318;50.966;5.284;2022-10-17T02:54:21;15.90;99.90
37460;DHT22;23318;50.966;5.284;2022-10-17T02:56:54;15.80;99.90
37460;DHT22;23318;50.966;5.284;2022-10-17T02:59:21;16.00;99.90
37460;DHT22;23318;50.966;5.284;2022-10-17T03:01:49;16.00;99.90
37460;DHT22;23318;50.966;5.284;2022-10-17T03:04:16;16.00;99.90
37460;DHT22;23318;50.966;5.284;2022-10-17T03:06:43;16.00;99.90
37460;DHT22;23318;50.966;5.284;2022-10-17T03:09:09;16.00;99.90
37460;DHT22;23318;50.966;5.284;2022-10-17T03:11:34;16.00;99.90
37460;DHT22;23318;50.966;5.284;2022-10-17T03:14:00;16.10;99.90
37460;DHT22;23318;50.966;5.284;2022-10-17T03:16:26;16.20;99.90
37460;DHT22;23318;50.966;5.284;2022-10-17T03:18:51;16.30;99.90
37460;DHT22;23318;50.966;5.284;2022-10-17T03:21:17;16.40;99.90
37460;DHT22;23318;50.966;5.284;2022-10-17T03:23:43;16.60;99.90
37460;DHT22;23318;50.966;5.284;2022-10-17T03:26:08;16.70;99.90
37460;DHT22;23318;50.966;5.284;2022-10-17T03:28:34;16.80;99.90
37460;DHT22;23318;50.966;5.284;2022-10-17T03:31:08;16.70;99.90
37460;DHT22;23318;50.966;5.284;2022-10-17T03:33:35;16.70;99.90
37460;DHT22;23318;50.966;5.284;2022-10-17T03:36:10;16.90;99.90
37460;DHT22;23318;50.966;5.284;2022-10-17T03:38:36;16.90;99.90
37460;DHT22;23318;50.966;5.284;2022-10-17T03:41:03;16.70;99.90
37460;DHT22;23318;50.966;5.284;2022-10-17T03:43:29;16.60;99.90
37460;DHT22;23318;50.966;5.284;2022-10-17T03:45:59;16.70;99.90
37460;DHT22;23318;50.966;5.284;2022-10-17T03:48:26;16.80;99.90
37460;DHT22;23318;50.966;5.284;2022-10-17T03:50:59;16.80;99.90
37460;DHT22;23318;50.966;5.284;2022-10-17T03:53:26;16.80;99.90
37460;DHT22;23318;50.966;5.284;2022-10-17T03:55:51;16.90;99.90
37460;DHT22;23318;50.966;5.284;2022-10-17T03:58:17;16.90;99.90
37460;DHT22;23318;50.966;5.284;2022-10-17T04:00:43;17.00;99.90
37460;DHT22;23318;50.966;5.284;2022-10-17T04:03:08;17.00;99.90
37460;DHT22;23318;50.966;5.284;2022-10-17T04:05:34;17.20;99.90
37460;DHT22;23318;50.966;5.284;2022-10-17T04:07:59;17.20;99.90
37460;DHT22;23318;50.966;5.284;2022-10-17T04:10:25;17.10;99.90
37460;DHT22;23318;50.966;5.284;2022-10-17T04:12:51;17.10;99.90
37460;DHT22;23318;50.966;5.284;2022-10-17T04:15:16;17.20;99.90
37460;DHT22;23318;50.966;5.284;2022-10-17T04:17:42;17.00;99.90
37460;DHT22;23318;50.966;5.284;2022-10-17T04:20:08;17.00;99.90
37460;DHT22;23318;50.966;5.284;2022-10-17T04:22:33;17.10;99.90
37460;DHT22;23318;50.966;5.284;2022-10-17T04:24:59;17.00;99.90
37460;DHT22;23318;50.966;5.284;2022-10-17T04:27:25;17.00;99.90
37460;DHT22;23318;50.966;5.284;2022-10-17T04:29:50;17.10;99.90
37460;DHT22;23318;50.966;5.284;2022-10-17T04:32:16;17.20;99.90
37460;DHT22;23318;50.966;5.284;2022-10-17T04:34:42;16.90;99.90
37460;DHT22;23318;50.966;5.284;2022-10-17T04:37:07;16.90;99.90
37460;DHT22;23318;50.966;5.284;2022-10-17T04:39:33;16.80;99.90
37460;DHT22;23318;50.966;5.284;2022-10-17T04:41:58;16.80;99.90
37460;DHT22;23318;50.966;5.284;2022-10-17T04:44:24;17.20;99.90
37460;DHT22;23318;50.966;5.284;2022-10-17T04:46:50;17.20;99.90
37460;DHT22;23318;50.966;5.284;2022-10-17T04:49:16;17.10;99.90
37460;DHT22;23318;50.966;5.284;2022-10-17T04:51:41;17.10;99.90
37460;DHT22;23318;50.966;5.284;2022-10-17T04:54:07;16.90;99.90
37460;DHT22;23318;50.966;5.284;2022-10-17T04:56:32;16.90;99.90
37460;DHT22;23318;50.966;5.284;2022-10-17T04:58:58;16.90;99.90
37460;DHT22;23318;50.966;5.284;2022-10-17T05:01:24;17.00;99.90
37460;DHT22;23318;50.966;5.284;2022-10-17T05:03:50;16.90;99.90
37460;DHT22;23318;50.966;5.284;2022-10-17T05:06:19;16.80;99.90
37460;DHT22;23318;50.966;5.284;2022-10-17T05:08:45;17.00;99.90
37460;DHT22;23318;50.966;5.284;2022-10-17T05:11:20;17.00;99.90
37460;DHT22;23318;50.966;5.284;2022-10-17T05:13:57;17.10;99.90
37460;DHT22;23318;50.966;5.284;2022-10-17T05:16:24;17.10;99.90
37460;DHT22;23318;50.966;5.284;2022-10-17T05:18:51;17.10;99.90
37460;DHT22;23318;50.966;5.284;2022-10-17T05:21:17;17.00;99.90
37460;DHT22;23318;50.966;5.284;2022-10-17T05:23:44;17.20;99.90
37460;DHT22;23318;50.966;5.284;2022-10-17T05:26:10;17.20;99.90
37460;DHT22;23318;50.966;5.284;2022-10-17T05:28:36;17.10;99.90
37460;DHT22;23318;50.966;5.284;2022-10-17T05:31:06;17.20;99.90
37460;DHT22;23318;50.966;5.284;2022-10-17T05:33:32;17.10;99.90
37460;DHT22;23318;50.966;5.284;2022-10-17T05:35:58;17.10;99.90
37460;DHT22;23318;50.966;5.284;2022-10-17T05:38:24;17.40;99.90
37460;DHT22;23318;50.966;5.284;2022-10-17T05:40:50;17.40;99.90
37460;DHT22;23318;50.966;5.284;2022-10-17T05:43:16;17.40;99.90
37460;DHT22;23318;50.966;5.284;2022-10-17T05:45:41;17.20;99.90
37460;DHT22;23318;50.966;5.284;2022-10-17T05:48:07;17.20;99.90
37460;DHT22;23318;50.966;5.284;2022-10-17T05:50:34;17.20;99.90
37460;DHT22;23318;50.966;5.284;2022-10-17T05:53:00;17.40;99.90
37460;DHT22;23318;50.966;5.284;2022-10-17T05:55:26;17.40;99.90
37460;DHT22;23318;50.966;5.284;2022-10-17T05:57:52;17.50;99.90
37460;DHT22;23318;50.966;5.284;2022-10-17T06:00:19;17.50;99.90
37460;DHT22;23318;50.966;5.284;2022-10-17T06:02:45;17.30;99.90
37460;DHT22;23318;50.966;5.284;2022-10-17T06:05:12;17.50;99.90
37460;DHT22;23318;50.966;5.284;2022-10-17T06:07:38;17.50;99.90
37460;DHT22;23318;50.966;5.284;2022-10-17T06:10:05;17.60;99.90
37460;DHT22;23318;50.966;5.284;2022-10-17T06:12:31;17.70;99.90
37460;DHT22;23318;50.966;5.284;2022-10-17T06:14:57;17.70;99.90
37460;DHT22;23318;50.966;5.284;2022-10-17T06:17:23;17.50;99.90
37460;DHT22;23318;50.966;5.284;2022-10-17T06:19:48;17.40;99.90
37460;DHT22;23318;50.966;5.284;2022-10-17T06:22:14;17.30;99.90
37460;DHT22;23318;50.966;5.284;2022-10-17T06:24:40;17.30;99.90
37460;DHT22;23318;50.966;5.284;2022-10-17T06:27:06;17.30;99.90
37460;DHT22;23318;50.966;5.284;2022-10-17T06:29:33;17.50;99.90
37460;DHT22;23318;50.966;5.284;2022-10-17T06:31:58;17.50;99.90
37460;DHT22;23318;50.966;5.284;2022-10-17T06:34:24;17.40;99.90
37460;DHT22;23318;50.966;5.284;2022-10-17T06:36:49;17.50;99.90
37460;DHT22;23318;50.966;5.284;2022-10-17T06:39:15;17.80;99.90
37460;DHT22;23318;50.966;5.284;2022-10-17T06:41:41;18.00;99.90
37460;DHT22;23318;50.966;5.284;2022-10-17T06:44:08;18.10;99.90
37460;DHT22;23318;50.966;5.284;2022-10-17T06:46:37;18.00;99.90
37460;DHT22;23318;50.966;5.284;2022-10-17T06:49:03;17.90;99.90
37460;DHT22;23318;50.966;5.284;2022-10-17T06:51:30;17.80;99.90
37460;DHT22;23318;50.966;5.284;2022-10-17T06:53:57;17.70;99.90
37460;DHT22;23318;50.966;5.284;2022-10-17T06:56:23;17.70;99.90
37460;DHT22;23318;50.966;5.284;2022-10-17T06:58:49;17.80;99.90
37460;DHT22;23318;50.966;5.284;2022-10-17T07:01:16;17.80;99.90
37460;DHT22;23318;50.966;5.284;2022-10-17T07:03:41;17.90;99.90
37460;DHT22;23318;50.966;5.284;2022-10-17T07:06:08;18.00;99.90
37460;DHT22;23318;50.966;5.284;2022-10-17T07:08:35;17.80;99.90
37460;DHT22;23318;50.966;5.284;2022-10-17T07:11:09;18.10;99.90
37460;DHT22;23318;50.966;5.284;2022-10-17T07:13:35;18.00;99.90
37460;DHT22;23318;50.966;5.284;2022-10-17T07:16:01;18.20;99.90
37460;DHT22;23318;50.966;5.284;2022-10-17T07:18:26;18.10;99.90
37460;DHT22;23318;50.966;5.284;2022-10-17T07:20:53;18.20;99.90
37460;DHT22;23318;50.966;5.284;2022-10-17T07:23:19;18.40;99.90
37460;DHT22;23318;50.966;5.284;2022-10-17T07:25:45;18.40;99.90
37460;DHT22;23318;50.966;5.284;2022-10-17T07:28:11;18.80;99.90
37460;DHT22;23318;50.966;5.284;2022-10-17T07:30:36;19.10;99.90
37460;DHT22;23318;50.966;5.284;2022-10-17T07:33:02;18.90;99.90
37460;DHT22;23318;50.966;5.284;2022-10-17T07:35:27;18.80;99.90
37460;DHT22;23318;50.966;5.284;2022-10-17T07:37:53;18.90;99.90
37460;DHT22;23318;50.966;5.284;2022-10-17T07:40:19;18.80;99.90
37460;DHT22;23318;50.966;5.284;2022-10-17T07:42:44;18.70;99.90
37460;DHT22;23318;50.966;5.284;2022-10-17T07:45:10;18.90;99.90
37460;DHT22;23318;50.966;5.284;2022-10-17T07:47:36;18.90;99.90
37460;DHT22;23318;50.966;5.284;2022-10-17T07:50:03;18.90;99.90
37460;DHT22;23318;50.966;5.284;2022-10-17T07:52:29;18.90;99.90
37460;DHT22;23318;50.966;5.284;2022-10-17T07:54:54;18.80;99.90
37460;DHT22;23318;50.966;5.284;2022-10-17T07:57:20;18.80;99.90
37460;DHT22;23318;50.966;5.284;2022-10-17T07:59:45;18.60;99.90
37460;DHT22;23318;50.966;5.284;2022-10-17T08:02:25;18.50;99.90
37460;DHT22;23318;50.966;5.284;2022-10-17T08:04:52;18.60;99.90
37460;DHT22;23318;50.966;5.284;2022-10-17T08:07:18;18.50;99.90
37460;DHT22;23318;50.966;5.284;2022-10-17T08:09:44;18.50;99.90
37460;DHT22;23318;50.966;5.284;2022-10-17T08:12:10;18.40;99.90
37460;DHT22;23318;50.966;5.284;2022-10-17T08:14:37;18.40;99.90
37460;DHT22;23318;50.966;5.284;2022-10-17T08:17:03;18.40;99.90
37460;DHT22;23318;50.966;5.284;2022-10-17T08:19:29;18.50;99.90
37460;DHT22;23318;50.966;5.284;2022-10-17T08:21:54;18.60;99.90
37460;DHT22;23318;50.966;5.284;2022-10-17T08:24:21;18.80;99.90
37460;DHT22;23318;50.966;5.284;2022-10-17T08:26:47;18.70;99.90
37460;DHT22;23318;50.966;5.284;2022-10-17T08:29:13;18.80;99.90
37460;DHT22;23318;50.966;5.284;2022-10-17T08:31:39;19.00;99.90
37460;DHT22;23318;50.966;5.284;2022-10-17T08:34:05;19.30;99.90
37460;DHT22;23318;50.966;5.284;2022-10-17T08:36:30;19.40;99.90
37460;DHT22;23318;50.966;5.284;2022-10-17T08:38:56;19.50;99.90
37460;DHT22;23318;50.966;5.284;2022-10-17T08:47:15;19.10;99.90
37460;DHT22;23318;50.966;5.284;2022-10-17T08:49:52;18.70;99.90
37460;DHT22;23318;50.966;5.284;2022-10-17T08:54:50;18.40;99.90
37460;DHT22;23318;50.966;5.284;2022-10-17T08:57:16;18.30;99.90
37460;DHT22;23318;50.966;5.284;2022-10-17T08:59:43;18.20;99.90
37460;DHT22;23318;50.966;5.284;2022-10-17T09:07:47;18.50;99.90
37460;DHT22;23318;50.966;5.284;2022-10-17T09:10:44;18.50;99.90
37460;DHT22;23318;50.966;5.284;2022-10-17T09:13:21;19.10;99.90
37460;DHT22;23318;50.966;5.284;2022-10-17T09:18:30;19.90;99.90
37460;DHT22;23318;50.966;5.284;2022-10-17T09:24:10;20.20;99.90
37460;DHT22;23318;50.966;5.284;2022-10-17T09:26:38;20.40;99.90
37460;DHT22;23318;50.966;5.284;2022-10-17T09:29:14;20.60;99.90
37460;DHT22;23318;50.966;5.284;2022-10-17T09:31:46;20.40;99.90
37460;DHT22;23318;50.966;5.284;2022-10-17T09:34:13;20.50;99.90
37460;DHT22;23318;50.966;5.284;2022-10-17T09:36:40;20.20;99.90
37460;DHT22;23318;50.966;5.284;2022-10-17T09:41:42;20.10;99.90
37460;DHT22;23318;50.966;5.284;2022-10-17T09:44:27;19.80;99.90
37460;DHT22;23318;50.966;5.284;2022-10-17T09:49:45;19.70;99.90
37460;DHT22;23318;50.966;5.284;2022-10-17T09:55:03;19.70;99.90
37460;DHT22;23318;50.966;5.284;2022-10-17T09:57:56;19.40;99.90
37460;DHT22;23318;50.966;5.284;2022-10-17T10:00:27;19.40;99.90
37460;DHT22;23318;50.966;5.284;2022-10-17T10:03:20;19.40;99.90
37460;DHT22;23318;50.966;5.284;2022-10-17T10:08:28;19.30;99.90
37460;DHT22;23318;50.966;5.284;2022-10-17T10:11:07;19.10;99.90
37460;DHT22;23318;50.966;5.284;2022-10-17T10:13:33;19.30;99.90
37460;DHT22;23318;50.966;5.284;2022-10-17T10:18:38;19.70;99.90
37460;DHT22;23318;50.966;5.284;2022-10-17T10:21:15;19.80;99.90
37460;DHT22;23318;50.966;5.284;2022-10-17T10:24:04;20.00;99.90
37460;DHT22;23318;50.966;5.284;2022-10-17T10:26:45;20.10;99.90
37460;DHT22;23318;50.966;5.284;2022-10-17T10:29:19;19.90;99.90
37460;DHT22;23318;50.966;5.284;2022-10-17T10:31:46;19.90;99.90
37460;DHT22;23318;50.966;5.284;2022-10-17T10:34:20;20.00;99.90
37460;DHT22;23318;50.966;5.284;2022-10-17T10:36:48;20.00;99.90
37460;DHT22;23318;50.966;5.284;2022-10-17T10:39:34;20.20;99.90
37460;DHT22;23318;50.966;5.284;2022-10-17T10:42:01;20.00;99.90
37460;DHT22;23318;50.966;5.284;2022-10-17T10:44:29;19.70;99.90
37460;DHT22;23318;50.966;5.284;2022-10-17T10:47:19;19.50;99.90
37460;DHT22;23318;50.966;5.284;2022-10-17T10:49:45;19.50;99.90
37460;DHT22;23318;50.966;5.284;2022-10-17T10:52:35;19.50;99.90
37460;DHT22;23318;50.966;5.284;2022-10-17T10:55:16;19.60;99.90
37460;DHT22;23318;50.966;5.284;2022-10-17T10:57:46;19.50;99.90
37460;DHT22;23318;50.966;5.284;2022-10-17T11:00:21;19.40;99.90
37460;DHT22;23318;50.966;5.284;2022-10-17T11:03:00;19.80;99.90
37460;DHT22;23318;50.966;5.284;2022-10-17T11:05:49;20.00;99.90
37460;DHT22;23318;50.966;5.284;2022-10-17T11:14:37;19.40;99.90
37460;DHT22;23318;50.966;5.284;2022-10-17T11:16:41;19.50;99.90
37460;DHT22;23318;50.966;5.284;2022-10-17T11:19:24;19.50;99.90
37460;DHT22;23318;50.966;5.284;2022-10-17T11:24:59;19.40;99.90
37460;DHT22;23318;50.966;5.284;2022-10-17T11:27:29;19.30;99.90
37460;DHT22;23318;50.966;5.284;2022-10-17T11:29:56;19.40;99.90
37460;DHT22;23318;50.966;5.284;2022-10-17T11:33:11;19.40;99.90
37460;DHT22;23318;50.966;5.284;2022-10-17T11:35:31;19.50;99.90
37460;DHT22;23318;50.966;5.284;2022-10-17T11:40:52;19.50;99.90
37460;DHT22;23318;50.966;5.284;2022-10-17T11:43:19;19.40;99.90
37460;DHT22;23318;50.966;5.284;2022-10-17T11:45:54;19.50;99.90
37460;DHT22;23318;50.966;5.284;2022-10-17T11:48:40;19.50;99.90
37460;DHT22;23318;50.966;5.284;2022-10-17T11:51:10;19.40;99.90
37460;DHT22;23318;50.966;5.284;2022-10-17T11:56:42;19.50;99.90
37460;DHT22;23318;50.966;5.284;2022-10-17T12:02:31;19.60;99.90
37460;DHT22;23318;50.966;5.284;2022-10-17T12:08:23;19.50;99.90
37460;DHT22;23318;50.966;5.284;2022-10-17T12:10:59;19.40;99.90
37460;DHT22;23318;50.966;5.284;2022-10-17T12:21:12;18.90;99.90
37460;DHT22;23318;50.966;5.284;2022-10-17T12:23:38;18.80;99.90
37460;DHT22;23318;50.966;5.284;2022-10-17T12:26:08;18.80;99.90
37460;DHT22;23318;50.966;5.284;2022-10-17T12:28:41;18.70;99.90
37460;DHT22;23318;50.966;5.284;2022-10-17T12:34:02;18.50;99.90
37460;DHT22;23318;50.966;5.284;2022-10-17T12:47:27;18.20;99.90
37460;DHT22;23318;50.966;5.284;2022-10-17T12:54:38;18.10;99.90
37460;DHT22;23318;50.966;5.284;2022-10-17T12:57:14;18.10;99.90
37460;DHT22;23318;50.966;5.284;2022-10-17T12:59:43;18.10;99.90
37460;DHT22;23318;50.966;5.284;2022-10-17T13:02:19;18.10;99.90
37460;DHT22;23318;50.966;5.284;2022-10-17T13:04:47;18.10;99.90
37460;DHT22;23318;50.966;5.284;2022-10-17T13:07:21;18.00;99.90
37460;DHT22;23318;50.966;5.284;2022-10-17T13:09:48;18.10;99.90
37460;DHT22;23318;50.966;5.284;2022-10-17T13:12:20;18.00;99.90
37460;DHT22;23318;50.966;5.284;2022-10-17T13:14:49;18.00;99.90
37460;DHT22;23318;50.966;5.284;2022-10-17T13:17:25;18.00;99.90
37460;DHT22;23318;50.966;5.284;2022-10-17T13:19:52;17.90;99.90
37460;DHT22;23318;50.966;5.284;2022-10-17T13:22:23;17.90;99.90
37460;DHT22;23318;50.966;5.284;2022-10-17T13:24:51;17.80;99.90
37460;DHT22;23318;50.966;5.284;2022-10-17T13:27:29;17.80;99.90
37460;DHT22;23318;50.966;5.284;2022-10-17T13:30:01;17.80;99.90
37460;DHT22;23318;50.966;5.284;2022-10-17T13:32:35;17.90;99.90
37460;DHT22;23318;50.966;5.284;2022-10-17T13:35:10;17.90;99.90
37460;DHT22;23318;50.966;5.284;2022-10-17T13:37:39;18.00;99.90
37460;DHT22;23318;50.966;5.284;2022-10-17T13:40:06;17.90;99.90
37460;DHT22;23318;50.966;5.284;2022-10-17T13:42:39;17.80;99.90
37460;DHT22;23318;50.966;5.284;2022-10-17T13:45:30;17.90;99.90
37460;DHT22;23318;50.966;5.284;2022-10-17T13:48:02;18.00;99.90
37460;DHT22;23318;50.966;5.284;2022-10-17T13:50:32;17.90;99.90
37460;DHT22;23318;50.966;5.284;2022-10-17T13:53:43;17.90;99.90
37460;DHT22;23318;50.966;5.284;2022-10-17T13:58:46;17.90;99.90
37460;DHT22;23318;50.966;5.284;2022-10-17T14:01:13;17.80;99.90
37460;DHT22;23318;50.966;5.284;2022-10-17T14:03:43;17.90;99.90
37460;DHT22;23318;50.966;5.284;2022-10-17T14:06:24;17.90;99.90
37460;DHT22;23318;50.966;5.284;2022-10-17T14:08:59;17.90;99.90
37460;DHT22;23318;50.966;5.284;2022-10-17T14:11:35;17.90;99.90
37460;DHT22;23318;50.966;5.284;2022-10-17T14:14:03;17.80;99.90
37460;DHT22;23318;50.966;5.284;2022-10-17T14:16:36;17.80;99.90
37460;DHT22;23318;50.966;5.284;2022-10-17T14:19:04;17.90;99.90
37460;DHT22;23318;50.966;5.284;2022-10-17T14:21:30;17.90;99.90
37460;DHT22;23318;50.966;5.284;2022-10-17T14:26:50;18.20;99.90
37460;DHT22;23318;50.966;5.284;2022-10-17T14:32:05;18.00;99.90
37460;DHT22;23318;50.966;5.284;2022-10-17T14:34:38;18.10;99.90
37460;DHT22;23318;50.966;5.284;2022-10-17T14:39:48;18.40;99.90
37460;DHT22;23318;50.966;5.284;2022-10-17T14:42:21;18.30;99.90
37460;DHT22;23318;50.966;5.284;2022-10-17T14:44:52;18.20;99.90
37460;DHT22;23318;50.966;5.284;2022-10-17T14:47:23;18.10;99.90
37460;DHT22;23318;50.966;5.284;2022-10-17T14:50:05;18.00;99.90
37460;DHT22;23318;50.966;5.284;2022-10-17T14:52:32;17.90;99.90
37460;DHT22;23318;50.966;5.284;2022-10-17T14:54:59;18.00;99.90
37460;DHT22;23318;50.966;5.284;2022-10-17T14:57:39;18.00;99.90
37460;DHT22;23318;50.966;5.284;2022-10-17T15:00:06;18.00;99.90
37460;DHT22;23318;50.966;5.284;2022-10-17T15:02:32;18.00;99.90
37460;DHT22;23318;50.966;5.284;2022-10-17T15:04:57;17.90;99.90
37460;DHT22;23318;50.966;5.284;2022-10-17T15:07:23;17.90;99.90
37460;DHT22;23318;50.966;5.284;2022-10-17T15:09:50;18.00;99.90
37460;DHT22;23318;50.966;5.284;2022-10-17T15:12:22;18.00;99.90
37460;DHT22;23318;50.966;5.284;2022-10-17T15:14:49;18.00;99.90
37460;DHT22;23318;50.966;5.284;2022-10-17T15:17:24;18.00;99.90
37460;DHT22;23318;50.966;5.284;2022-10-17T15:19:50;18.00;99.90
37460;DHT22;23318;50.966;5.284;2022-10-17T15:22:16;18.00;99.90
37460;DHT22;23318;50.966;5.284;2022-10-17T15:24:42;18.00;99.90
37460;DHT22;23318;50.966;5.284;2022-10-17T15:27:17;18.00;99.90
37460;DHT22;23318;50.966;5.284;2022-10-17T15:29:44;18.10;99.90
37460;DHT22;23318;50.966;5.284;2022-10-17T15:32:09;18.10;99.90
37460;DHT22;23318;50.966;5.284;2022-10-17T15:34:35;18.00;99.90
37460;DHT22;23318;50.966;5.284;2022-10-17T15:37:03;17.90;99.90
37460;DHT22;23318;50.966;5.284;2022-10-17T15:39:29;17.90;99.90
37460;DHT22;23318;50.966;5.284;2022-10-17T15:41:55;17.90;99.90
37460;DHT22;23318;50.966;5.284;2022-10-17T15:44:21;18.00;99.90
37460;DHT22;23318;50.966;5.284;2022-10-17T15:46:47;17.90;99.90
37460;DHT22;23318;50.966;5.284;2022-10-17T15:49:13;18.00;99.90
37460;DHT22;23318;50.966;5.284;2022-10-17T15:51:41;18.10;99.90
37460;DHT22;23318;50.966;5.284;2022-10-17T15:54:07;18.00;99.90
37460;DHT22;23318;50.966;5.284;2022-10-17T15:56:40;17.90;99.90
37460;DHT22;23318;50.966;5.284;2022-10-17T15:59:19;17.90;99.90
37460;DHT22;23318;50.966;5.284;2022-10-17T16:01:45;17.80;99.90
37460;DHT22;23318;50.966;5.284;2022-10-17T16:04:13;17.80;99.90
37460;DHT22;23318;50.966;5.284;2022-10-17T16:06:40;17.70;99.90
37460;DHT22;23318;50.966;5.284;2022-10-17T16:09:07;17.80;99.90
37460;DHT22;23318;50.966;5.284;2022-10-17T16:11:38;18.00;99.90
37460;DHT22;23318;50.966;5.284;2022-10-17T16:14:10;18.30;99.90
37460;DHT22;23318;50.966;5.284;2022-10-17T16:16:36;18.40;99.90
37460;DHT22;23318;50.966;5.284;2022-10-17T16:19:02;18.50;99.90
37460;DHT22;23318;50.966;5.284;2022-10-17T16:21:30;18.60;99.90
37460;DHT22;23318;50.966;5.284;2022-10-17T16:23:57;18.40;99.90
37460;DHT22;23318;50.966;5.284;2022-10-17T16:26:23;18.10;99.90
37460;DHT22;23318;50.966;5.284;2022-10-17T16:28:49;17.70;99.90
37460;DHT22;23318;50.966;5.284;2022-10-17T16:33:47;17.70;99.90
37460;DHT22;23318;50.966;5.284;2022-10-17T16:36:13;17.60;99.90
37460;DHT22;23318;50.966;5.284;2022-10-17T16:38:39;17.70;99.90
37460;DHT22;23318;50.966;5.284;2022-10-17T16:41:18;17.60;99.90
37460;DHT22;23318;50.966;5.284;2022-10-17T16:43:45;17.50;99.90
37460;DHT22;23318;50.966;5.284;2022-10-17T16:46:11;17.40;99.90
37460;DHT22;23318;50.966;5.284;2022-10-17T16:48:36;17.20;99.90
37460;DHT22;23318;50.966;5.284;2022-10-17T16:51:02;17.20;99.90
37460;DHT22;23318;50.966;5.284;2022-10-17T16:53:28;17.10;99.90
37460;DHT22;23318;50.966;5.284;2022-10-17T16:56:01;17.10;99.90
37460;DHT22;23318;50.966;5.284;2022-10-17T16:58:27;17.00;99.90
37460;DHT22;23318;50.966;5.284;2022-10-17T17:00:58;16.90;99.90
37460;DHT22;23318;50.966;5.284;2022-10-17T17:03:24;17.00;99.90
37460;DHT22;23318;50.966;5.284;2022-10-17T17:05:50;16.90;99.90
37460;DHT22;23318;50.966;5.284;2022-10-17T17:08:16;16.90;99.90
37460;DHT22;23318;50.966;5.284;2022-10-17T17:10:46;16.80;99.90
37460;DHT22;23318;50.966;5.284;2022-10-17T17:13:14;16.90;99.90
37460;DHT22;23318;50.966;5.284;2022-10-17T17:15:40;16.80;99.90
37460;DHT22;23318;50.966;5.284;2022-10-17T17:18:05;16.90;99.90
37460;DHT22;23318;50.966;5.284;2022-10-17T17:20:32;17.00;99.90
37460;DHT22;23318;50.966;5.284;2022-10-17T17:22:57;16.80;99.90
37460;DHT22;23318;50.966;5.284;2022-10-17T17:25:23;16.70;99.90
37460;DHT22;23318;50.966;5.284;2022-10-17T17:27:49;16.60;99.90
37460;DHT22;23318;50.966;5.284;2022-10-17T17:30:14;16.50;99.90
37460;DHT22;23318;50.966;5.284;2022-10-17T17:32:40;16.50;99.90
37460;DHT22;23318;50.966;5.284;2022-10-17T17:35:06;16.40;99.90
37460;DHT22;23318;50.966;5.284;2022-10-17T17:37:32;16.50;99.90
37460;DHT22;23318;50.966;5.284;2022-10-17T17:39:57;16.50;99.90
37460;DHT22;23318;50.966;5.284;2022-10-17T17:42:23;16.80;99.90
37460;DHT22;23318;50.966;5.284;2022-10-17T17:44:49;17.00;99.90
37460;DHT22;23318;50.966;5.284;2022-10-17T17:47:14;16.90;99.90
37460;DHT22;23318;50.966;5.284;2022-10-17T17:49:40;16.70;99.90
37460;DHT22;23318;50.966;5.284;2022-10-17T17:52:05;16.60;99.90